sensor_id;sensor_type;location;lat;lon;timestamp;pressure;altitude;pressure_sealevel;temperature;humidity
29433;BME280;16405;53.964;13.448;2023-04-29T00:02:01;100765.25;;;7.63;91.55
29433;BME280;16405;53.964;13.448;2023-04-29T00:04:28;100767.06;;;7.61;92.17
29433;BME280;16405;53.964;13.448;2023-04-29T00:06:54;100758.16;;;7.40;94.13
29433;BME280;16405;53.964;13.448;2023-04-29T00:09:21;100768.44;;;7.46;94.96
29433;BME280;16405;53.964;13.448;2023-04-29T00:11:46;100759.88;;;7.41;95.49
29433;BME280;16405;53.964;13.448;2023-04-29T00:14:13;100749.47;;;7.38;96.30
29433;BME280;16405;53.964;13.448;2023-04-29T00:16:39;100758.34;;;7.34;96.76
29433;BME280;16405;53.964;13.448;2023-04-29T00:19:05;100758.25;;;7.37;97.79
29433;BME280;16405;53.964;13.448;2023-04-29T00:21:31;100752.06;;;7.39;97.54
29433;BME280;16405;53.964;13.448;2023-04-29T00:23:58;100747.66;;;7.40;97.70
29433;BME280;16405;53.964;13.448;2023-04-29T00:26:24;100745.31;;;7.32;98.97
29433;BME280;16405;53.964;13.448;2023-04-29T00:28:50;100744.44;;;7.32;99.24
29433;BME280;16405;53.964;13.448;2023-04-29T00:31:20;100739.19;;;7.32;100.00
29433;BME280;16405;53.964;13.448;2023-04-29T00:33:46;100745.81;;;7.44;99.18
29433;BME280;16405;53.964;13.448;2023-04-29T00:36:12;100739.56;;;7.48;99.10
29433;BME280;16405;53.964;13.448;2023-04-29T00:38:38;100740.63;;;7.42;98.86
29433;BME280;16405;53.964;13.448;2023-04-29T00:41:04;100744.72;;;7.49;98.21
29433;BME280;16405;53.964;13.448;2023-04-29T00:43:30;100742.84;;;7.54;98.42
29433;BME280;16405;53.964;13.448;2023-04-29T00:45:58;100746.41;;;7.52;98.40
29433;BME280;16405;53.964;13.448;2023-04-29T00:48:24;100740.16;;;7.56;98.23
29433;BME280;16405;53.964;13.448;2023-04-29T00:50:51;100736.63;;;7.57;98.24
29433;BME280;16405;53.964;13.448;2023-04-29T00:53:17;100744.38;;;7.60;98.66
29433;BME280;16405;53.964;13.448;2023-04-29T00:55:45;100736.66;;;7.55;98.64
29433;BME280;16405;53.964;13.448;2023-04-29T00:58:15;100741.91;;;7.55;99.67
29433;BME280;16405;53.964;13.448;2023-04-29T01:00:42;100736.59;;;7.58;99.49
29433;BME280;16405;53.964;13.448;2023-04-29T01:03:08;100737.44;;;7.59;99.29
29433;BME280;16405;53.964;13.448;2023-04-29T01:05:35;100739.09;;;7.62;99.90
29433;BME280;16405;53.964;13.448;2023-04-29T01:10:34;100737.31;;;7.62;100.00
29433;BME280;16405;53.964;13.448;2023-04-29T01:13:28;100742.66;;;7.59;100.00
29433;BME280;16405;53.964;13.448;2023-04-29T01:16:17;100739.88;;;7.64;100.00
29433;BME280;16405;53.964;13.448;2023-04-29T01:18:54;100737.47;;;7.57;100.00
29433;BME280;16405;53.964;13.448;2023-04-29T01:21:23;100733.03;;;7.59;100.00
29433;BME280;16405;53.964;13.448;2023-04-29T01:23:54;100732.94;;;7.63;100.00
29433;BME280;16405;53.964;13.448;2023-04-29T01:26:23;100731.22;;;7.62;100.00
29433;BME280;16405;53.964;13.448;2023-04-29T01:31:57;100733.63;;;7.68;100.00
29433;BME280;16405;53.964;13.448;2023-04-29T01:38:02;100724.72;;;7.73;100.00
29433;BME280;16405;53.964;13.448;2023-04-29T01:40:46;100731.03;;;7.68;100.00
29433;BME280;16405;53.964;13.448;2023-04-29T01:43:13;100728.44;;;7.66;100.00
29433;BME280;16405;53.964;13.448;2023-04-29T01:45:45;100727.59;;;7.66;100.00
29433;BME280;16405;53.964;13.448;2023-04-29T01:48:11;100725.66;;;7.71;100.00
29433;BME280;16405;53.964;13.448;2023-04-29T01:50:37;100732.72;;;7.69;100.00
29433;BME280;16405;53.964;13.448;2023-04-29T01:53:03;100712.78;;;7.65;100.00
29433;BME280;16405;53.964;13.448;2023-04-29T01:55:29;100724.72;;;7.73;100.00
29433;BME280;16405;53.964;13.448;2023-04-29T01:58:02;100718.69;;;7.71;100.00
29433;BME280;16405;53.964;13.448;2023-04-29T02:00:28;100723.00;;;7.72;100.00
29433;BME280;16405;53.964;13.448;2023-04-29T02:02:53;100723.84;;;7.73;100.00
29433;BME280;16405;53.964;13.448;2023-04-29T02:05:19;100725.53;;;7.75;100.00
29433;BME280;16405;53.964;13.448;2023-04-29T02:07:45;100721.97;;;7.76;100.00
29433;BME280;16405;53.964;13.448;2023-04-29T02:10:12;100723.75;;;7.76;100.00
29433;BME280;16405;53.964;13.448;2023-04-29T02:12:43;100716.06;;;7.71;100.00
29433;BME280;16405;53.964;13.448;2023-04-29T02:15:09;100721.16;;;7.74;100.00
29433;BME280;16405;53.964;13.448;2023-04-29T02:17:35;100715.16;;;7.71;100.00
29433;BME280;16405;53.964;13.448;2023-04-29T02:20:01;100719.59;;;7.69;100.00
29433;BME280;16405;53.964;13.448;2023-04-29T02:22:29;100713.69;;;7.64;100.00
29433;BME280;16405;53.964;13.448;2023-04-29T02:24:58;100717.75;;;7.72;100.00
29433;BME280;16405;53.964;13.448;2023-04-29T02:27:24;100717.00;;;7.69;100.00
29433;BME280;16405;53.964;13.448;2023-04-29T02:29:50;100713.53;;;7.68;100.00
29433;BME280;16405;53.964;13.448;2023-04-29T02:32:16;100711.06;;;7.64;100.00
29433;BME280;16405;53.964;13.448;2023-04-29T02:34:44;100706.63;;;7.66;100.00
29433;BME280;16405;53.964;13.448;2023-04-29T02:37:13;100709.19;;;7.67;100.00
29433;BME280;16405;53.964;13.448;2023-04-29T02:39:40;100707.59;;;7.63;100.00
29433;BME280;16405;53.964;13.448;2023-04-29T02:42:06;100713.44;;;7.71;100.00
29433;BME280;16405;53.964;13.448;2023-04-29T02:44:32;100711.53;;;7.75;100.00
29433;BME280;16405;53.964;13.448;2023-04-29T02:47:09;100708.75;;;7.79;100.00
29433;BME280;16405;53.964;13.448;2023-04-29T02:49:35;100712.19;;;7.81;100.00
29433;BME280;16405;53.964;13.448;2023-04-29T02:52:01;100702.44;;;7.85;100.00
29433;BME280;16405;53.964;13.448;2023-04-29T02:54:29;100705.13;;;7.84;100.00
29433;BME280;16405;53.964;13.448;2023-04-29T02:56:57;100712.03;;;7.86;100.00
29433;BME280;16405;53.964;13.448;2023-04-29T02:59:23;100703.47;;;7.81;100.00
29433;BME280;16405;53.964;13.448;2023-04-29T03:01:49;100707.72;;;7.84;100.00
29433;BME280;16405;53.964;13.448;2023-04-29T03:04:14;100706.00;;;7.84;100.00
29433;BME280;16405;53.964;13.448;2023-04-29T03:06:40;100700.84;;;7.81;100.00
29433;BME280;16405;53.964;13.448;2023-04-29T03:09:06;100701.59;;;7.85;100.00
29433;BME280;16405;53.964;13.448;2023-04-29T03:11:38;100702.78;;;7.76;100.00
29433;BME280;16405;53.964;13.448;2023-04-29T03:14:04;100699.03;;;7.83;100.00
29433;BME280;16405;53.964;13.448;2023-04-29T03:16:29;100697.16;;;7.87;100.00
29433;BME280;16405;53.964;13.448;2023-04-29T03:18:56;100699.78;;;7.87;100.00
29433;BME280;16405;53.964;13.448;2023-04-29T03:21:22;100698.22;;;7.81;100.00
29433;BME280;16405;53.964;13.448;2023-04-29T03:23:53;100700.78;;;7.83;100.00
29433;BME280;16405;53.964;13.448;2023-04-29T03:26:19;100702.44;;;7.85;100.00
29433;BME280;16405;53.964;13.448;2023-04-29T03:28:47;100700.50;;;7.90;100.00
29433;BME280;16405;53.964;13.448;2023-04-29T03:31:12;100700.84;;;7.81;100.00
29433;BME280;16405;53.964;13.448;2023-04-29T03:33:48;100702.50;;;7.84;100.00
29433;BME280;16405;53.964;13.448;2023-04-29T03:36:16;100701.47;;;7.88;100.00
29433;BME280;16405;53.964;13.448;2023-04-29T03:38:42;100700.09;;;7.77;100.00
29433;BME280;16405;53.964;13.448;2023-04-29T03:41:13;100699.16;;;7.80;100.00
29433;BME280;16405;53.964;13.448;2023-04-29T03:43:40;100697.38;;;7.80;100.00
29433;BME280;16405;53.964;13.448;2023-04-29T03:46:05;100705.19;;;7.82;100.00
29433;BME280;16405;53.964;13.448;2023-04-29T03:48:32;100706.78;;;7.86;100.00
29433;BME280;16405;53.964;13.448;2023-04-29T03:50:57;100709.16;;;7.92;100.00
29433;BME280;16405;53.964;13.448;2023-04-29T03:53:28;100699.44;;;7.96;100.00
29433;BME280;16405;53.964;13.448;2023-04-29T03:55:54;100709.06;;;7.95;100.00
29433;BME280;16405;53.964;13.448;2023-04-29T03:58:20;100703.63;;;8.01;100.00
29433;BME280;16405;53.964;13.448;2023-04-29T04:00:46;100709.81;;;7.99;100.00
29433;BME280;16405;53.964;13.448;2023-04-29T04:03:12;100701.94;;;7.99;100.00
29433;BME280;16405;53.964;13.448;2023-04-29T04:05:37;100701.03;;;8.00;100.00
29433;BME280;16405;53.964;13.448;2023-04-29T04:08:03;100707.03;;;8.04;100.00
29433;BME280;16405;53.964;13.448;2023-04-29T04:10:36;100707.84;;;8.06;100.00
29433;BME280;16405;53.964;13.448;2023-04-29T04:13:02;100712.13;;;8.08;100.00
29433;BME280;16405;53.964;13.448;2023-04-29T04:15:29;100704.63;;;7.97;100.00
29433;BME280;16405;53.964;13.448;2023-04-29T04:18:02;100709.59;;;8.05;100.00
29433;BME280;16405;53.964;13.448;2023-04-29T04:20:28;100712.97;;;8.09;100.00
29433;BME280;16405;53.964;13.448;2023-04-29T04:22:56;100713.75;;;8.11;100.00
29433;BME280;16405;53.964;13.448;2023-04-29T04:25:22;100718.16;;;8.10;100.00
29433;BME280;16405;53.964;13.448;2023-04-29T04:27:50;100716.38;;;8.11;100.00
29433;BME280;16405;53.964;13.448;2023-04-29T04:30:19;100725.69;;;8.19;100.00
29433;BME280;16405;53.964;13.448;2023-04-29T04:32:44;100720.56;;;8.16;100.00
29433;BME280;16405;53.964;13.448;2023-04-29T04:35:19;100717.94;;;8.16;100.00
29433;BME280;16405;53.964;13.448;2023-04-29T04:37:45;100717.13;;;8.14;100.00
29433;BME280;16405;53.964;13.448;2023-04-29T04:40:12;100722.88;;;8.24;100.00
29433;BME280;16405;53.964;13.448;2023-04-29T04:42:39;100731.94;;;8.40;100.00
29433;BME280;16405;53.964;13.448;2023-04-29T04:45:06;100730.97;;;8.43;100.00
29433;BME280;16405;53.964;13.448;2023-04-29T04:47:36;100737.41;;;8.58;100.00
29433;BME280;16405;53.964;13.448;2023-04-29T04:50:06;100742.31;;;8.67;100.00
29433;BME280;16405;53.964;13.448;2023-04-29T04:52:33;100749.91;;;8.75;100.00
29433;BME280;16405;53.964;13.448;2023-04-29T04:55:01;100745.53;;;8.74;100.00
29433;BME280;16405;53.964;13.448;2023-04-29T04:57:29;100743.09;;;8.69;100.00
29433;BME280;16405;53.964;13.448;2023-04-29T04:59:55;100747.28;;;8.75;100.00
29433;BME280;16405;53.964;13.448;2023-04-29T05:02:20;100747.88;;;8.81;100.00
29433;BME280;16405;53.964;13.448;2023-04-29T05:04:46;100749.41;;;8.87;100.00
29433;BME280;16405;53.964;13.448;2023-04-29T05:07:13;100751.13;;;8.88;100.00
29433;BME280;16405;53.964;13.448;2023-04-29T05:09:41;100757.28;;;8.87;100.00
29433;BME280;16405;53.964;13.448;2023-04-29T05:12:09;100758.38;;;8.81;100.00
29433;BME280;16405;53.964;13.448;2023-04-29T05:14:36;100756.78;;;8.77;100.00
29433;BME280;16405;53.964;13.448;2023-04-29T05:17:01;100753.41;;;8.74;100.00
29433;BME280;16405;53.964;13.448;2023-04-29T05:19:27;100758.00;;;8.69;100.00
29433;BME280;16405;53.964;13.448;2023-04-29T05:21:53;100758.97;;;8.66;100.00
29433;BME280;16405;53.964;13.448;2023-04-29T05:24:27;100759.69;;;8.70;100.00
29433;BME280;16405;53.964;13.448;2023-04-29T05:26:56;100751.19;;;8.63;100.00
29433;BME280;16405;53.964;13.448;2023-04-29T05:29:22;100760.69;;;8.67;100.00
29433;BME280;16405;53.964;13.448;2023-04-29T05:31:57;100761.69;;;8.63;100.00
29433;BME280;16405;53.964;13.448;2023-04-29T05:34:23;100759.13;;;8.61;100.00
29433;BME280;16405;53.964;13.448;2023-04-29T05:36:50;100767.78;;;8.63;100.00
29433;BME280;16405;53.964;13.448;2023-04-29T05:39:21;100760.84;;;8.62;100.00
29433;BME280;16405;53.964;13.448;2023-04-29T05:41:47;100763.44;;;8.64;100.00
29433;BME280;16405;53.964;13.448;2023-04-29T05:44:13;100767.88;;;8.62;100.00
29433;BME280;16405;53.964;13.448;2023-04-29T05:46:39;100772.19;;;8.63;100.00
29433;BME280;16405;53.964;13.448;2023-04-29T05:49:04;100771.97;;;8.69;100.00
29433;BME280;16405;53.964;13.448;2023-04-29T05:51:30;100774.31;;;8.77;100.00
29433;BME280;16405;53.964;13.448;2023-04-29T05:54:01;100784.16;;;8.94;100.00
29433;BME280;16405;53.964;13.448;2023-04-29T05:56:27;100784.03;;;8.97;100.00
29433;BME280;16405;53.964;13.448;2023-04-29T05:58:53;100789.59;;;9.11;100.00
29433;BME280;16405;53.964;13.448;2023-04-29T06:01:19;100791.19;;;9.15;100.00
29433;BME280;16405;53.964;13.448;2023-04-29T06:03:44;100786.25;;;9.08;100.00
29433;BME280;16405;53.964;13.448;2023-04-29T06:06:10;100793.63;;;9.20;100.00
29433;BME280;16405;53.964;13.448;2023-04-29T06:08:41;100786.53;;;9.22;100.00
29433;BME280;16405;53.964;13.448;2023-04-29T06:11:08;100788.94;;;9.28;100.00
29433;BME280;16405;53.964;13.448;2023-04-29T06:13:33;100797.06;;;9.22;100.00
29433;BME280;16405;53.964;13.448;2023-04-29T06:15:59;100803.97;;;9.24;100.00
29433;BME280;16405;53.964;13.448;2023-04-29T06:18:25;100801.97;;;9.31;100.00
29433;BME280;16405;53.964;13.448;2023-04-29T06:20:51;100807.47;;;9.25;100.00
29433;BME280;16405;53.964;13.448;2023-04-29T06:23:24;100815.44;;;9.22;100.00
29433;BME280;16405;53.964;13.448;2023-04-29T06:25:50;100810.94;;;9.26;100.00
29433;BME280;16405;53.964;13.448;2023-04-29T06:28:16;100807.63;;;9.20;100.00
29433;BME280;16405;53.964;13.448;2023-04-29T06:30:43;100813.69;;;9.22;100.00
29433;BME280;16405;53.964;13.448;2023-04-29T06:33:18;100820.69;;;9.22;100.00
29433;BME280;16405;53.964;13.448;2023-04-29T06:35:44;100817.91;;;9.27;100.00
29433;BME280;16405;53.964;13.448;2023-04-29T06:38:14;100821.16;;;9.33;100.00
29433;BME280;16405;53.964;13.448;2023-04-29T06:40:40;100821.31;;;9.29;100.00
29433;BME280;16405;53.964;13.448;2023-04-29T06:43:05;100821.06;;;9.35;100.00
29433;BME280;16405;53.964;13.448;2023-04-29T06:45:31;100827.44;;;9.29;100.00
29433;BME280;16405;53.964;13.448;2023-04-29T06:47:57;100824.44;;;9.38;100.00
29433;BME280;16405;53.964;13.448;2023-04-29T06:50:23;100830.88;;;9.31;100.00
29433;BME280;16405;53.964;13.448;2023-04-29T06:52:49;100826.28;;;9.36;100.00
29433;BME280;16405;53.964;13.448;2023-04-29T06:55:19;100834.44;;;9.29;100.00
29433;BME280;16405;53.964;13.448;2023-04-29T06:57:45;100836.66;;;9.17;100.00
29433;BME280;16405;53.964;13.448;2023-04-29T07:00:11;100839.28;;;9.17;100.00
29433;BME280;16405;53.964;13.448;2023-04-29T07:02:37;100844.94;;;9.29;100.00
29433;BME280;16405;53.964;13.448;2023-04-29T07:05:04;100832.56;;;9.10;100.00
29433;BME280;16405;53.964;13.448;2023-04-29T07:07:30;100844.72;;;9.13;100.00
29433;BME280;16405;53.964;13.448;2023-04-29T07:10:05;100839.28;;;9.17;100.00
29433;BME280;16405;53.964;13.448;2023-04-29T07:12:31;100845.31;;;9.19;100.00
29433;BME280;16405;53.964;13.448;2023-04-29T07:14:57;100840.19;;;9.16;100.00
29433;BME280;16405;53.964;13.448;2023-04-29T07:17:28;100837.00;;;9.08;100.00
29433;BME280;16405;53.964;13.448;2023-04-29T07:19:55;100845.63;;;9.12;100.00
29433;BME280;16405;53.964;13.448;2023-04-29T07:22:21;100846.47;;;9.12;100.00
29433;BME280;16405;53.964;13.448;2023-04-29T07:24:47;100851.38;;;9.21;100.00
29433;BME280;16405;53.964;13.448;2023-04-29T07:27:13;100853.22;;;9.19;100.00
29433;BME280;16405;53.964;13.448;2023-04-29T07:29:46;100849.28;;;9.08;100.00
29433;BME280;16405;53.964;13.448;2023-04-29T07:32:12;100851.22;;;9.02;100.00
29433;BME280;16405;53.964;13.448;2023-04-29T07:34:38;100854.03;;;8.98;100.00
29433;BME280;16405;53.964;13.448;2023-04-29T07:37:04;100854.16;;;8.95;100.00
29433;BME280;16405;53.964;13.448;2023-04-29T07:39:30;100859.66;;;9.11;100.00
29433;BME280;16405;53.964;13.448;2023-04-29T07:41:56;100862.69;;;9.00;100.00
29433;BME280;16405;53.964;13.448;2023-04-29T07:44:24;100862.66;;;9.01;100.00
29433;BME280;16405;53.964;13.448;2023-04-29T07:46:50;100872.94;;;9.08;100.00
29433;BME280;16405;53.964;13.448;2023-04-29T07:49:16;100869.56;;;9.04;100.00
29433;BME280;16405;53.964;13.448;2023-04-29T07:51:42;100869.28;;;9.12;100.00
29433;BME280;16405;53.964;13.448;2023-04-29T07:54:08;100872.50;;;8.96;100.00
29433;BME280;16405;53.964;13.448;2023-04-29T07:56:34;100873.56;;;8.91;100.00
29433;BME280;16405;53.964;13.448;2023-04-29T07:59:05;100880.81;;;9.08;100.00
29433;BME280;16405;53.964;13.448;2023-04-29T08:01:31;100880.09;;;9.26;100.00
29433;BME280;16405;53.964;13.448;2023-04-29T08:03:57;100880.22;;;9.23;100.00
29433;BME280;16405;53.964;13.448;2023-04-29T08:06:25;100889.41;;;9.11;100.00
29433;BME280;16405;53.964;13.448;2023-04-29T08:08:56;100883.50;;;9.06;100.00
29433;BME280;16405;53.964;13.448;2023-04-29T08:11:22;100887.50;;;9.16;100.00
29433;BME280;16405;53.964;13.448;2023-04-29T08:13:49;100894.81;;;9.08;100.00
29433;BME280;16405;53.964;13.448;2023-04-29T08:16:15;100891.81;;;8.94;100.00
29433;BME280;16405;53.964;13.448;2023-04-29T08:18:41;100894.81;;;9.08;100.00
29433;BME280;16405;53.964;13.448;2023-04-29T08:21:16;100902.09;;;9.23;100.00
29433;BME280;16405;53.964;13.448;2023-04-29T08:23:42;100902.66;;;9.32;100.00
29433;BME280;16405;53.964;13.448;2023-04-29T08:26:10;100902.00;;;9.27;100.00
29433;BME280;16405;53.964;13.448;2023-04-29T08:28:40;100918.00;;;9.20;100.00
29433;BME280;16405;53.964;13.448;2023-04-29T08:31:21;100914.88;;;9.09;100.00
29433;BME280;16405;53.964;13.448;2023-04-29T08:33:49;100926.09;;;9.14;100.00
29433;BME280;16405;53.964;13.448;2023-04-29T08:36:15;100918.59;;;9.27;100.00
29433;BME280;16405;53.964;13.448;2023-04-29T08:38:50;100928.41;;;9.45;100.00
29433;BME280;16405;53.964;13.448;2023-04-29T08:41:20;100923.09;;;9.47;100.00
29433;BME280;16405;53.964;13.448;2023-04-29T08:43:49;100927.56;;;9.45;100.00
29433;BME280;16405;53.964;13.448;2023-04-29T08:46:22;100921.81;;;9.57;100.00
29433;BME280;16405;53.964;13.448;2023-04-29T08:49:08;100935.94;;;9.77;100.00
29433;BME280;16405;53.964;13.448;2023-04-29T08:51:36;100928.78;;;9.58;100.00
29433;BME280;16405;53.964;13.448;2023-04-29T08:54:05;100936.75;;;9.79;100.00
29433;BME280;16405;53.964;13.448;2023-04-29T08:56:34;100937.63;;;10.00;100.00
29433;BME280;16405;53.964;13.448;2023-04-29T08:59:08;100939.53;;;10.18;100.00
29433;BME280;16405;53.964;13.448;2023-04-29T09:01:35;100949.31;;;10.37;100.00
29433;BME280;16405;53.964;13.448;2023-04-29T09:07:45;100950.28;;;10.75;100.00
29433;BME280;16405;53.964;13.448;2023-04-29T09:10:17;100957.78;;;11.05;98.97
29433;BME280;16405;53.964;13.448;2023-04-29T09:12:47;100965.13;;;11.17;98.00
29433;BME280;16405;53.964;13.448;2023-04-29T09:15:18;100960.50;;;11.22;96.78
29433;BME280;16405;53.964;13.448;2023-04-29T09:17:47;100961.94;;;11.29;96.62
29433;BME280;16405;53.964;13.448;2023-04-29T09:22:49;100973.03;;;11.55;95.95
29433;BME280;16405;53.964;13.448;2023-04-29T09:25:18;100972.19;;;11.55;95.39
29433;BME280;16405;53.964;13.448;2023-04-29T09:27:44;100977.19;;;11.42;95.04
29433;BME280;16405;53.964;13.448;2023-04-29T09:30:13;100978.25;;;11.57;95.29
29433;BME280;16405;53.964;13.448;2023-04-29T09:32:44;100979.94;;;11.77;93.62
29433;BME280;16405;53.964;13.448;2023-04-29T09:35:30;100977.75;;;11.86;92.67
29433;BME280;16405;53.964;13.448;2023-04-29T09:38:19;100983.16;;;12.02;91.57
29433;BME280;16405;53.964;13.448;2023-04-29T09:40:51;100989.72;;;12.47;90.20
29433;BME280;16405;53.964;13.448;2023-04-29T09:43:18;100984.22;;;12.69;89.80
29433;BME280;16405;53.964;13.448;2023-04-29T09:45:51;100993.94;;;12.69;88.07
29433;BME280;16405;53.964;13.448;2023-04-29T09:48:23;101003.03;;;12.81;87.23
29433;BME280;16405;53.964;13.448;2023-04-29T09:51:01;101010.16;;;12.96;86.73
29433;BME280;16405;53.964;13.448;2023-04-29T09:53:29;101014.34;;;13.51;85.44
29433;BME280;16405;53.964;13.448;2023-04-29T09:56:07;101020.66;;;14.12;82.60
29433;BME280;16405;53.964;13.448;2023-04-29T09:58:34;101036.13;;;14.66;80.78
29433;BME280;16405;53.964;13.448;2023-04-29T10:01:12;101036.06;;;15.12;77.83
29433;BME280;16405;53.964;13.448;2023-04-29T10:03:49;101030.38;;;15.75;73.37
29433;BME280;16405;53.964;13.448;2023-04-29T10:06:21;101032.94;;;15.77;71.11
29433;BME280;16405;53.964;13.448;2023-04-29T10:08:53;101030.66;;;15.42;71.72
29433;BME280;16405;53.964;13.448;2023-04-29T10:11:20;101026.38;;;15.11;74.50
29433;BME280;16405;53.964;13.448;2023-04-29T10:13:51;101037.19;;;14.47;73.69
29433;BME280;16405;53.964;13.448;2023-04-29T10:16:38;101037.66;;;14.70;74.83
29433;BME280;16405;53.964;13.448;2023-04-29T10:19:09;101029.66;;;14.55;73.29
29433;BME280;16405;53.964;13.448;2023-04-29T10:21:43;101028.81;;;14.55;72.77
29433;BME280;16405;53.964;13.448;2023-04-29T10:24:16;101028.31;;;14.79;73.30
29433;BME280;16405;53.964;13.448;2023-04-29T10:26:42;101029.78;;;15.56;72.87
29433;BME280;16405;53.964;13.448;2023-04-29T10:29:14;101026.75;;;15.76;71.44
29433;BME280;16405;53.964;13.448;2023-04-29T10:31:43;101034.16;;;15.86;70.56
29433;BME280;16405;53.964;13.448;2023-04-29T10:34:21;101028.94;;;15.84;70.81
29433;BME280;16405;53.964;13.448;2023-04-29T10:36:57;101031.78;;;15.52;71.14
29433;BME280;16405;53.964;13.448;2023-04-29T10:42:57;101029.97;;;14.95;70.49
29433;BME280;16405;53.964;13.448;2023-04-29T10:45:26;101026.84;;;15.03;71.86
29433;BME280;16405;53.964;13.448;2023-04-29T10:53:22;101025.63;;;15.23;69.63
29433;BME280;16405;53.964;13.448;2023-04-29T10:56:11;101022.78;;;15.12;69.54
29433;BME280;16405;53.964;13.448;2023-04-29T10:58:44;101035.31;;;15.53;71.44
29433;BME280;16405;53.964;13.448;2023-04-29T11:01:16;101041.00;;;15.47;70.60
29433;BME280;16405;53.964;13.448;2023-04-29T11:06:55;101032.38;;;15.57;67.87
29433;BME280;16405;53.964;13.448;2023-04-29T11:09:34;101030.38;;;15.47;67.80
29433;BME280;16405;53.964;13.448;2023-04-29T11:12:17;101038.13;;;15.64;69.23
29433;BME280;16405;53.964;13.448;2023-04-29T11:14:50;101042.22;;;15.41;66.42
29433;BME280;16405;53.964;13.448;2023-04-29T11:17:18;101039.38;;;15.30;66.45
29433;BME280;16405;53.964;13.448;2023-04-29T11:19:48;101044.09;;;15.39;66.42
29433;BME280;16405;53.964;13.448;2023-04-29T11:22:27;101043.63;;;15.18;66.81
29433;BME280;16405;53.964;13.448;2023-04-29T11:25:08;101048.31;;;14.98;66.52
29433;BME280;16405;53.964;13.448;2023-04-29T11:27:39;101050.72;;;15.17;65.75
29433;BME280;16405;53.964;13.448;2023-04-29T11:30:08;101061.53;;;15.14;66.37
29433;BME280;16405;53.964;13.448;2023-04-29T11:32:40;101060.88;;;15.54;68.29
29433;BME280;16405;53.964;13.448;2023-04-29T11:35:15;101070.00;;;15.64;66.20
29433;BME280;16405;53.964;13.448;2023-04-29T11:37:44;101060.50;;;15.46;66.88
29433;BME280;16405;53.964;13.448;2023-04-29T11:40:12;101062.44;;;15.72;67.28
29433;BME280;16405;53.964;13.448;2023-04-29T11:42:48;101068.09;;;15.66;66.35
29433;BME280;16405;53.964;13.448;2023-04-29T11:45:18;101073.50;;;15.36;66.60
29433;BME280;16405;53.964;13.448;2023-04-29T11:47:48;101062.84;;;15.22;66.64
29433;BME280;16405;53.964;13.448;2023-04-29T11:50:16;101076.81;;;15.54;65.17
29433;BME280;16405;53.964;13.448;2023-04-29T11:52:46;101075.72;;;15.72;63.64
29433;BME280;16405;53.964;13.448;2023-04-29T11:55:15;101078.03;;;15.48;64.68
29433;BME280;16405;53.964;13.448;2023-04-29T11:57:42;101084.84;;;15.52;64.92
29433;BME280;16405;53.964;13.448;2023-04-29T12:00:15;101085.44;;;15.86;64.55
29433;BME280;16405;53.964;13.448;2023-04-29T12:02:47;101086.75;;;15.50;65.17
29433;BME280;16405;53.964;13.448;2023-04-29T12:05:19;101087.22;;;15.43;64.66
29433;BME280;16405;53.964;13.448;2023-04-29T12:07:53;101087.22;;;15.57;66.37
29433;BME280;16405;53.964;13.448;2023-04-29T12:10:20;101100.78;;;15.67;64.70
29433;BME280;16405;53.964;13.448;2023-04-29T12:12:53;101094.84;;;15.92;65.41
29433;BME280;16405;53.964;13.448;2023-04-29T12:15:22;101095.72;;;16.19;65.03
29433;BME280;16405;53.964;13.448;2023-04-29T12:17:48;101091.75;;;16.12;63.50
29433;BME280;16405;53.964;13.448;2023-04-29T12:20:17;101094.97;;;16.17;63.33
29433;BME280;16405;53.964;13.448;2023-04-29T12:22:43;101107.69;;;16.27;63.58
29433;BME280;16405;53.964;13.448;2023-04-29T12:25:10;101107.59;;;16.14;62.08
29433;BME280;16405;53.964;13.448;2023-04-29T12:27:39;101096.31;;;15.96;61.19
29433;BME280;16405;53.964;13.448;2023-04-29T12:30:09;101097.75;;;15.58;59.93
29433;BME280;16405;53.964;13.448;2023-04-29T12:32:36;101098.22;;;15.65;59.55
29433;BME280;16405;53.964;13.448;2023-04-29T12:35:02;101092.53;;;15.57;59.87
29433;BME280;16405;53.964;13.448;2023-04-29T12:37:28;101104.09;;;15.56;60.26
29433;BME280;16405;53.964;13.448;2023-04-29T12:39:54;101106.53;;;15.75;60.18
29433;BME280;16405;53.964;13.448;2023-04-29T12:42:20;101104.88;;;15.58;57.91
29433;BME280;16405;53.964;13.448;2023-04-29T12:44:49;101107.03;;;15.66;59.34
29433;BME280;16405;53.964;13.448;2023-04-29T12:47:15;101108.00;;;15.36;59.56
29433;BME280;16405;53.964;13.448;2023-04-29T12:49:46;101108.50;;;15.71;59.88
29433;BME280;16405;53.964;13.448;2023-04-29T12:52:13;101110.84;;;15.62;59.10
29433;BME280;16405;53.964;13.448;2023-04-29T12:54:39;101110.47;;;15.82;59.26
29433;BME280;16405;53.964;13.448;2023-04-29T12:57:11;101110.56;;;15.81;56.62
29433;BME280;16405;53.964;13.448;2023-04-29T12:59:37;101120.53;;;15.91;57.18
29433;BME280;16405;53.964;13.448;2023-04-29T13:02:05;101117.31;;;15.72;57.90
29433;BME280;16405;53.964;13.448;2023-04-29T13:04:31;101124.06;;;15.77;57.25
29433;BME280;16405;53.964;13.448;2023-04-29T13:06:57;101123.84;;;15.95;57.34
29433;BME280;16405;53.964;13.448;2023-04-29T13:09:27;101127.66;;;15.91;56.81
29433;BME280;16405;53.964;13.448;2023-04-29T13:11:53;101129.53;;;15.89;56.27
29433;BME280;16405;53.964;13.448;2023-04-29T13:14:20;101126.88;;;15.89;56.35
29433;BME280;16405;53.964;13.448;2023-04-29T13:16:46;101130.22;;;15.92;56.47